Terminal Aerodrome Forecast
Issued by NWS

Home | Current Version | Previous Version | Text Only | Print | Product List | Glossary On
Versions: 1 2 3 4 5 6 7 8 9 10 11 12 13 14 15 16 17 18
000
FTUS42 KMHX 170548
TAFISO
TAF
KISO 170548Z 1706/1806 00000KT P6SM SCT150
     FM170700 00000KT 3SM BR SCT140
     FM170800 00000KT 1/2SM FG BKN003
     FM171300 VRB04KT 2SM BR BKN007
     FM171400 16005KT P6SM FEW007 SCT100
     FM171700 17008KT P6SM SCT035 BKN090
      AMD LTD TO CLD VIS AND WIND=

USA.gov is the U.S. government's official web portal to all federal, state and local government web resources and services.